createdAt,value
2019-03-09T00:02:26.284Z,5.63
2019-03-09T00:07:31.768Z,5.64
2019-03-09T00:12:37.290Z,5.69
2019-03-09T00:17:42.638Z,5.61
2019-03-09T00:22:49.600Z,5.62
2019-03-09T00:27:58.905Z,5.57
2019-03-09T00:33:04.147Z,5.46
2019-03-09T00:38:09.268Z,5.48
2019-03-09T00:43:14.382Z,5.47
2019-03-09T00:48:19.533Z,5.39
2019-03-09T00:53:24.905Z,5.43
2019-03-09T00:58:30.295Z,5.42
2019-03-09T01:03:35.628Z,5.31
2019-03-09T01:08:40.814Z,5.33
2019-03-09T01:13:46.343Z,5.38
2019-03-09T01:18:51.505Z,5.34
2019-03-09T01:23:56.756Z,5.36
2019-03-09T01:29:02.325Z,5.31
2019-03-09T01:34:07.593Z,5.40
2019-03-09T01:39:12.962Z,5.26
2019-03-09T01:44:18.614Z,5.24
2019-03-09T01:49:23.956Z,5.16
2019-03-09T01:54:29.226Z,5.08
2019-03-09T01:59:34.680Z,5.04
2019-03-09T02:04:39.942Z,5.09
2019-03-09T02:09:45.178Z,5.09
2019-03-09T02:14:50.454Z,5.07
2019-03-09T02:19:55.801Z,4.92
2019-03-09T02:25:01.173Z,4.88
2019-03-09T02:30:12.564Z,4.86
2019-03-09T02:35:18.844Z,4.88
2019-03-09T02:40:25.863Z,4.79
2019-03-09T02:45:32.223Z,4.75
2019-03-09T02:50:39.090Z,4.71
2019-03-09T02:55:44.244Z,4.66
2019-03-09T03:00:57.017Z,4.57
2019-03-09T03:06:02.877Z,4.52
2019-03-09T03:11:08.145Z,4.51
2019-03-09T03:16:13.228Z,4.44
2019-03-09T03:21:18.442Z,4.43
2019-03-09T03:26:23.610Z,4.31
2019-03-09T03:31:29.155Z,4.33
2019-03-09T03:36:34.695Z,4.25
2019-03-09T03:41:40.002Z,4.16
2019-03-09T03:46:45.694Z,4.18
2019-03-09T03:51:50.904Z,4.14
2019-03-09T03:56:56.359Z,4.13
2019-03-09T04:02:02.025Z,4.09
2019-03-09T04:07:07.605Z,4.10
2019-03-09T04:12:13.702Z,4.05
2019-03-09T04:17:19.073Z,4.06
2019-03-09T04:22:24.387Z,4.05
2019-03-09T04:27:29.760Z,4.01
2019-03-09T04:32:34.933Z,4.08
2019-03-09T04:37:40.363Z,4.08
2019-03-09T04:42:45.822Z,4.16
2019-03-09T04:47:51.183Z,4.29
2019-03-09T04:52:56.536Z,4.45
2019-03-09T04:58:01.907Z,4.51
2019-03-09T05:03:07.421Z,4.62
2019-03-09T05:08:18.453Z,4.63
2019-03-09T05:13:26.885Z,4.67
2019-03-09T05:18:32.154Z,4.64
2019-03-09T05:23:37.387Z,4.63
2019-03-09T05:28:42.764Z,4.71
2019-03-09T05:33:48.211Z,4.75
2019-03-09T05:38:53.581Z,4.64
2019-03-09T05:43:58.726Z,4.65
2019-03-09T05:49:05.308Z,4.72
2019-03-09T05:54:10.565Z,4.73
2019-03-09T05:59:15.762Z,4.83
2019-03-09T06:04:21.425Z,4.83
2019-03-09T06:09:26.772Z,4.84
2019-03-09T06:14:32.121Z,4.86
2019-03-09T06:19:37.673Z,4.85
2019-03-09T06:24:43.138Z,4.91
2019-03-09T06:29:48.391Z,4.89
2019-03-09T06:34:53.569Z,4.91
2019-03-09T06:39:58.794Z,4.89
2019-03-09T06:45:05.076Z,4.98
2019-03-09T06:50:17.549Z,5.04
2019-03-09T06:55:22.960Z,5.03
2019-03-09T07:00:33.450Z,5.01
2019-03-09T07:05:38.688Z,5.16
2019-03-09T07:10:43.878Z,5.20
2019-03-09T07:15:49.216Z,5.33
2019-03-09T07:20:54.249Z,5.36
2019-03-09T07:25:59.733Z,5.28
2019-03-09T07:31:05.697Z,5.20
2019-03-09T07:36:11.071Z,5.16
2019-03-09T07:41:16.493Z,5.16
2019-03-09T07:46:21.568Z,4.97
2019-03-09T07:51:26.644Z,5.21
2019-03-09T07:56:31.800Z,5.26
2019-03-09T08:01:38.166Z,5.19
2019-03-09T08:06:43.608Z,5.52
2019-03-09T08:11:48.873Z,5.80
2019-03-09T08:16:54.239Z,5.94
2019-03-09T08:21:59.518Z,6.06
2019-03-09T08:27:04.950Z,6.21
2019-03-09T08:32:10.227Z,6.32
2019-03-09T08:37:15.751Z,6.79
2019-03-09T08:42:21.033Z,7.02
2019-03-09T08:47:26.425Z,6.91
2019-03-09T08:52:31.659Z,6.90
2019-03-09T08:57:36.860Z,7.13
2019-03-09T09:02:42.153Z,7.20
2019-03-09T09:07:47.717Z,7.43
2019-03-09T09:12:53.219Z,7.76
2019-03-09T09:17:58.859Z,7.75
2019-03-09T09:23:04.612Z,7.54
2019-03-09T09:28:09.771Z,7.49
2019-03-09T09:33:15.121Z,7.35
2019-03-09T09:38:20.493Z,7.38
2019-03-09T09:43:25.955Z,7.38
2019-03-09T09:48:31.347Z,7.37
2019-03-09T09:53:36.567Z,7.44
2019-03-09T09:58:41.746Z,7.32
2019-03-09T10:03:46.742Z,7.26
2019-03-09T10:08:51.882Z,7.32
2019-03-09T10:13:57.252Z,7.36
2019-03-09T10:19:03.556Z,7.49
2019-03-09T10:24:08.922Z,7.36
2019-03-09T10:29:17.385Z,7.43
2019-03-09T10:34:22.633Z,7.41
2019-03-09T10:39:27.919Z,7.39
2019-03-09T10:44:33.224Z,7.37
2019-03-09T10:49:39.073Z,7.33
2019-03-09T10:54:44.549Z,7.21
2019-03-09T10:59:50.550Z,7.36
2019-03-09T11:04:55.981Z,7.16
2019-03-09T11:10:01.245Z,7.05
2019-03-09T11:15:08.553Z,6.96
2019-03-09T11:20:15.753Z,6.91
2019-03-09T11:25:21.129Z,6.86
2019-03-09T11:30:28.215Z,6.81
2019-03-09T11:35:34.036Z,6.62
2019-03-09T11:40:39.521Z,6.63
2019-03-09T11:45:44.598Z,6.68
2019-03-09T11:50:49.844Z,6.58
2019-03-09T11:55:55.104Z,6.34
2019-03-09T12:01:00.468Z,6.26
2019-03-09T12:06:05.826Z,6.22
2019-03-09T12:11:11.074Z,6.15
2019-03-09T12:16:16.544Z,6.28
2019-03-09T12:21:21.901Z,6.16
2019-03-09T12:26:27.331Z,6.37
2019-03-09T12:31:33.427Z,6.49
2019-03-09T12:36:38.791Z,6.58
2019-03-09T12:41:44.060Z,6.48
2019-03-09T12:46:49.521Z,6.55
2019-03-09T12:51:54.868Z,6.62
2019-03-09T12:57:00.200Z,6.87
2019-03-09T13:02:05.969Z,6.81
2019-03-09T13:07:11.231Z,7.00
2019-03-09T13:12:16.412Z,7.12
2019-03-09T13:17:21.973Z,7.27
2019-03-09T13:22:27.632Z,7.06
2019-03-09T13:27:33.001Z,6.81
2019-03-09T13:32:39.585Z,6.29
2019-03-09T13:37:45.160Z,6.03
2019-03-09T13:42:50.495Z,6.00
2019-03-09T13:47:55.775Z,6.19
2019-03-09T13:53:01.132Z,6.48
2019-03-09T13:58:06.481Z,6.64
2019-03-09T14:03:11.739Z,6.72
2019-03-09T14:08:16.998Z,6.63
2019-03-09T14:13:22.279Z,6.64
2019-03-09T14:18:27.510Z,6.66
2019-03-09T14:23:33.175Z,6.69
2019-03-09T14:28:38.220Z,6.75
2019-03-09T14:33:43.650Z,6.82
2019-03-09T14:38:48.672Z,8.06
2019-03-09T14:43:53.754Z,8.51
2019-03-09T14:48:58.846Z,8.10
2019-03-09T14:54:04.880Z,7.60
2019-03-09T14:59:10.164Z,7.47
2019-03-09T15:04:15.350Z,7.57
2019-03-09T15:09:20.778Z,7.57
2019-03-09T15:14:26.136Z,7.67
2019-03-09T15:19:31.430Z,7.84
2019-03-09T15:24:36.776Z,8.31
2019-03-09T15:29:42.016Z,8.61
2019-03-09T15:34:47.397Z,8.43
2019-03-09T15:39:52.627Z,8.23
2019-03-09T15:44:59.069Z,8.04
2019-03-09T15:50:06.831Z,7.81
2019-03-09T15:55:12.890Z,7.65
2019-03-09T16:00:23.209Z,7.60
2019-03-09T16:05:28.328Z,7.48
2019-03-09T16:10:33.791Z,7.40
2019-03-09T16:15:38.939Z,7.42
2019-03-09T16:20:43.987Z,7.34
2019-03-09T16:25:49.381Z,7.32
2019-03-09T16:30:54.848Z,7.19
2019-03-09T16:36:00.193Z,7.16
2019-03-09T16:41:05.457Z,7.17
2019-03-09T16:46:11.103Z,7.23
2019-03-09T16:51:16.357Z,7.24
2019-03-09T16:56:21.707Z,7.18
2019-03-09T17:01:27.068Z,7.14
2019-03-09T17:06:32.843Z,7.10
2019-03-09T17:11:38.298Z,7.03
2019-03-09T17:16:43.798Z,7.05
2019-03-09T17:21:49.025Z,7.01
2019-03-09T17:26:54.073Z,6.91
2019-03-09T17:31:59.423Z,6.94
2019-03-09T17:37:04.683Z,6.86
2019-03-09T17:42:11.497Z,6.85
2019-03-09T17:47:17.777Z,6.87
2019-03-09T17:52:23.215Z,6.84
2019-03-09T17:57:28.485Z,6.83
2019-03-09T18:02:33.698Z,6.79
2019-03-09T18:07:39.100Z,6.79
2019-03-09T18:12:44.362Z,6.74
2019-03-09T18:17:49.916Z,6.74
2019-03-09T18:22:55.371Z,6.77
2019-03-09T18:28:00.867Z,6.74
2019-03-09T18:33:06.394Z,6.70
2019-03-09T18:38:11.649Z,6.62
2019-03-09T18:43:17.018Z,6.54
2019-03-09T18:48:23.495Z,6.47
2019-03-09T18:53:28.964Z,6.44
2019-03-09T18:58:34.331Z,6.35
2019-03-09T19:03:40.801Z,6.26
2019-03-09T19:08:46.096Z,6.20
2019-03-09T19:13:51.327Z,6.13
2019-03-09T19:18:56.816Z,6.09
2019-03-09T19:24:01.919Z,6.07
2019-03-09T19:29:07.288Z,6.11
2019-03-09T19:34:12.387Z,6.08
2019-03-09T19:39:17.697Z,6.04
2019-03-09T19:44:22.929Z,5.96
2019-03-09T19:49:28.200Z,5.92
2019-03-09T19:54:33.580Z,5.82
2019-03-09T19:59:38.710Z,5.85
2019-03-09T20:04:44.050Z,5.72
2019-03-09T20:09:49.086Z,5.65
2019-03-09T20:14:54.385Z,5.65
2019-03-09T20:20:00.977Z,5.59
2019-03-09T20:25:07.882Z,5.51
2019-03-09T20:30:20.721Z,5.56
2019-03-09T20:35:26.173Z,5.46
2019-03-09T20:40:31.570Z,5.36
2019-03-09T20:45:37.167Z,5.37
2019-03-09T20:50:42.547Z,5.30
2019-03-09T20:55:48.025Z,5.28
2019-03-09T21:00:53.620Z,5.56
2019-03-09T21:05:59.057Z,5.65
2019-03-09T21:11:04.983Z,5.76
2019-03-09T21:16:10.350Z,5.83
2019-03-09T21:21:15.547Z,5.71
2019-03-09T21:26:20.844Z,5.63
2019-03-09T21:31:26.141Z,5.53
2019-03-09T21:36:31.262Z,5.54
2019-03-09T21:41:36.746Z,5.55
2019-03-09T21:46:42.258Z,5.53
2019-03-09T21:51:47.470Z,5.47
2019-03-09T21:56:53.254Z,5.54
2019-03-09T22:02:01.956Z,5.52
2019-03-09T22:07:07.463Z,5.54
2019-03-09T22:12:15.449Z,5.55
2019-03-09T22:17:20.873Z,5.54
2019-03-09T22:22:26.593Z,5.56
2019-03-09T22:27:31.909Z,5.55
2019-03-09T22:32:37.415Z,5.48
2019-03-09T22:37:42.848Z,5.40
2019-03-09T22:42:49.158Z,5.32
2019-03-09T22:47:54.541Z,5.42
2019-03-09T22:53:02.267Z,5.32
2019-03-09T22:58:07.630Z,5.45
2019-03-09T23:03:12.938Z,5.50
2019-03-09T23:08:18.304Z,5.49
2019-03-09T23:13:23.843Z,5.62
2019-03-09T23:18:29.199Z,5.63
2019-03-09T23:23:34.543Z,5.73
2019-03-09T23:28:44.772Z,5.69
2019-03-09T23:33:50.005Z,5.52
2019-03-09T23:38:55.328Z,5.56
2019-03-09T23:44:00.517Z,4.82
2019-03-09T23:49:05.770Z,3.63
2019-03-09T23:54:11.131Z,2.93
2019-03-09T23:59:16.686Z,2.84
